createdAt,value
2022-09-28T00:00:54.002Z,61.85
2022-09-28T00:03:20.349Z,61.48
2022-09-28T00:05:46.676Z,61.35
2022-09-28T00:08:13.014Z,61.02
2022-09-28T00:10:39.356Z,61.21
2022-09-28T00:13:05.701Z,61.21
2022-09-28T00:15:32.033Z,60.44
2022-09-28T00:17:58.369Z,61.16
2022-09-28T00:20:24.709Z,61.15
2022-09-28T00:22:51.045Z,61.10
2022-09-28T00:25:17.382Z,61.70
2022-09-28T00:27:43.705Z,61.01
2022-09-28T00:30:10.034Z,60.92
2022-09-28T00:32:36.367Z,61.67
2022-09-28T00:35:02.710Z,61.42
2022-09-28T00:37:29.071Z,61.55
2022-09-28T00:39:55.422Z,62.05
2022-09-28T00:42:21.773Z,61.99
2022-09-28T00:44:48.109Z,61.63
2022-09-28T00:47:14.440Z,61.12
2022-09-28T00:49:40.768Z,62.19
2022-09-28T00:52:07.091Z,62.11
2022-09-28T00:54:33.411Z,61.46
2022-09-28T00:56:59.740Z,61.98
2022-09-28T00:59:26.085Z,61.86
2022-09-28T01:01:52.450Z,61.55
2022-09-28T01:04:18.795Z,61.84
2022-09-28T01:06:45.129Z,61.97
2022-09-28T01:09:11.466Z,63.07
2022-09-28T01:11:37.793Z,63.98
2022-09-28T01:14:04.124Z,63.16
2022-09-28T01:16:30.606Z,64.46
2022-09-28T01:18:57.006Z,64.49
2022-09-28T01:21:23.324Z,65.12
2022-09-28T01:23:49.707Z,65.77
2022-09-28T01:26:16.067Z,65.18
2022-09-28T01:28:42.397Z,64.79
2022-09-28T01:31:08.771Z,65.50
2022-09-28T01:33:35.138Z,64.66
2022-09-28T01:36:01.476Z,64.90
2022-09-28T01:38:27.847Z,63.70
2022-09-28T01:40:54.239Z,64.46
2022-09-28T01:43:20.612Z,63.91
2022-09-28T01:45:46.981Z,64.80
2022-09-28T01:48:13.341Z,64.47
2022-09-28T01:50:39.675Z,64.73
2022-09-28T01:53:06.004Z,65.90
2022-09-28T01:55:32.334Z,66.47
2022-09-28T01:57:58.664Z,65.15
2022-09-28T02:00:24.992Z,65.76
2022-09-28T02:02:51.335Z,66.26
2022-09-28T02:05:17.670Z,65.99
2022-09-28T02:07:43.989Z,65.58
2022-09-28T02:10:10.330Z,64.32
2022-09-28T02:12:36.687Z,65.95
2022-09-28T02:15:03.054Z,64.73
2022-09-28T02:17:29.419Z,64.92
2022-09-28T02:19:55.759Z,65.33
2022-09-28T02:22:22.077Z,65.99
2022-09-28T02:24:48.408Z,67.19
2022-09-28T02:27:14.738Z,67.10
2022-09-28T02:29:41.062Z,68.00
2022-09-28T02:32:07.389Z,68.10
2022-09-28T02:34:33.724Z,67.69
2022-09-28T02:37:00.046Z,68.55
2022-09-28T02:39:26.356Z,68.33
2022-09-28T02:41:52.689Z,69.34
2022-09-28T02:44:19.003Z,68.87
2022-09-28T02:46:45.329Z,69.14
2022-09-28T02:49:21.398Z,69.45
2022-09-28T02:51:48.321Z,69.09
2022-09-28T02:54:18.633Z,69.19
2022-09-28T02:56:45.309Z,68.78
2022-09-28T02:59:11.640Z,68.78
2022-09-28T03:01:37.991Z,69.68
2022-09-28T03:04:04.332Z,69.62
2022-09-28T03:06:30.669Z,69.54
2022-09-28T03:08:57.003Z,69.77
2022-09-28T03:11:23.334Z,69.26
2022-09-28T03:13:49.665Z,69.74
2022-09-28T03:16:16.031Z,69.52
2022-09-28T03:18:42.396Z,68.29
2022-09-28T03:21:08.732Z,68.74
2022-09-28T03:23:35.056Z,68.91
2022-09-28T03:26:01.387Z,69.10
2022-09-28T03:28:27.725Z,69.83
2022-09-28T03:30:54.051Z,70.37
2022-09-28T03:33:20.391Z,69.27
2022-09-28T03:35:46.713Z,70.98
2022-09-28T03:38:13.041Z,71.06
2022-09-28T03:40:39.465Z,70.41
2022-09-28T03:43:05.809Z,70.50
2022-09-28T03:45:32.196Z,70.66
2022-09-28T03:47:58.534Z,71.01
2022-09-28T03:50:24.851Z,71.05
2022-09-28T03:52:51.168Z,70.85
2022-09-28T03:55:17.497Z,70.04
2022-09-28T03:57:43.823Z,70.99
2022-09-28T04:00:10.143Z,71.38
2022-09-28T04:02:36.571Z,72.08
2022-09-28T04:05:02.970Z,71.33
2022-09-28T04:07:31.200Z,71.20
2022-09-28T04:09:57.729Z,71.16
2022-09-28T04:12:24.048Z,71.16
2022-09-28T04:14:50.399Z,70.52
2022-09-28T04:17:16.730Z,70.43
2022-09-28T04:19:43.066Z,70.90
2022-09-28T04:22:09.386Z,71.23
2022-09-28T04:24:35.704Z,71.96
2022-09-28T04:27:02.047Z,71.27
2022-09-28T04:29:28.383Z,71.77
2022-09-28T04:31:54.729Z,72.08
2022-09-28T04:34:21.068Z,71.12
2022-09-28T04:36:47.377Z,70.35
2022-09-28T04:39:13.718Z,70.96
2022-09-28T04:41:40.103Z,71.09
2022-09-28T04:44:06.433Z,70.60
2022-09-28T04:46:32.753Z,71.14
2022-09-28T04:48:59.089Z,71.02
2022-09-28T04:51:25.403Z,71.01
2022-09-28T04:53:51.743Z,72.12
2022-09-28T04:56:18.077Z,72.62
2022-09-28T04:58:46.876Z,72.45
2022-09-28T05:01:15.466Z,72.27
2022-09-28T05:03:41.844Z,72.92
2022-09-28T05:06:08.172Z,71.95
2022-09-28T05:08:34.497Z,72.75
2022-09-28T05:11:00.836Z,72.77
2022-09-28T05:13:27.187Z,72.87
2022-09-28T05:15:57.460Z,73.48
2022-09-28T05:18:25.241Z,72.55
2022-09-28T05:20:51.555Z,71.79
2022-09-28T05:23:17.872Z,71.75
2022-09-28T05:25:44.326Z,72.22
2022-09-28T05:28:10.666Z,72.88
2022-09-28T05:30:37.011Z,71.43
2022-09-28T05:33:03.369Z,71.98
2022-09-28T05:35:29.735Z,72.16
2022-09-28T05:37:56.080Z,71.45
2022-09-28T05:40:22.461Z,72.53
2022-09-28T05:42:48.858Z,72.25
2022-09-28T05:45:15.175Z,73.32
2022-09-28T05:47:41.503Z,72.45
2022-09-28T05:50:07.845Z,72.30
2022-09-28T05:52:34.177Z,72.62
2022-09-28T05:55:00.516Z,72.61
2022-09-28T05:57:26.831Z,72.11
2022-09-28T05:59:53.161Z,72.47
2022-09-28T06:02:19.563Z,71.57
2022-09-28T06:04:45.926Z,71.87
2022-09-28T06:07:12.258Z,72.92
2022-09-28T06:09:38.594Z,72.44
2022-09-28T06:12:04.931Z,71.74
2022-09-28T06:14:31.277Z,72.71
2022-09-28T06:16:57.697Z,72.79
2022-09-28T06:19:24.093Z,71.57
2022-09-28T06:21:50.428Z,71.54
2022-09-28T06:24:16.913Z,72.52
2022-09-28T06:26:43.328Z,72.02
2022-09-28T06:29:09.653Z,72.01
2022-09-28T06:31:35.989Z,72.01
2022-09-28T06:34:02.326Z,71.79
2022-09-28T06:36:28.653Z,71.84
2022-09-28T06:38:54.994Z,72.36
2022-09-28T06:41:21.332Z,71.81
2022-09-28T06:43:47.658Z,71.08
2022-09-28T06:46:14.009Z,71.60
2022-09-28T06:48:40.406Z,71.38
2022-09-28T06:51:06.753Z,70.81
2022-09-28T06:53:33.080Z,70.83
2022-09-28T06:55:59.404Z,70.84
2022-09-28T06:58:25.724Z,71.40
2022-09-28T07:00:52.093Z,70.56
2022-09-28T07:03:18.498Z,70.86
2022-09-28T07:05:44.825Z,70.65
2022-09-28T07:08:11.167Z,70.69
2022-09-28T07:10:37.498Z,70.17
2022-09-28T07:13:03.837Z,71.16
2022-09-28T07:15:30.168Z,70.95
2022-09-28T07:18:02.138Z,70.95
2022-09-28T07:20:29.784Z,71.61
2022-09-28T07:22:56.732Z,71.47
2022-09-28T07:25:24.255Z,71.32
2022-09-28T07:27:50.592Z,71.23
2022-09-28T07:30:16.926Z,71.38
2022-09-28T07:32:43.243Z,71.77
2022-09-28T07:35:09.569Z,71.56
2022-09-28T07:37:35.905Z,72.56
2022-09-28T07:40:02.436Z,72.64
2022-09-28T07:42:28.756Z,72.40
2022-09-28T07:44:55.082Z,71.78
2022-09-28T07:47:21.421Z,71.52
2022-09-28T07:49:47.744Z,71.57
2022-09-28T07:52:14.075Z,72.19
2022-09-28T07:54:40.406Z,71.62
2022-09-28T07:57:06.756Z,72.44
2022-09-28T07:59:33.098Z,71.63
2022-09-28T08:01:59.511Z,71.22
2022-09-28T08:04:25.860Z,71.27
2022-09-28T08:06:52.197Z,70.57
2022-09-28T08:09:18.696Z,71.09
2022-09-28T08:11:45.132Z,71.12
2022-09-28T08:14:11.465Z,72.34
2022-09-28T08:19:09.046Z,71.69
2022-09-28T08:21:35.405Z,71.70
2022-09-28T08:24:01.730Z,70.82
2022-09-28T08:26:28.068Z,72.04
2022-09-28T08:28:54.400Z,71.77
2022-09-28T08:31:20.791Z,71.74
2022-09-28T08:33:47.211Z,71.71
2022-09-28T08:36:13.542Z,70.83
2022-09-28T08:38:39.890Z,70.72
2022-09-28T08:41:06.236Z,70.63
2022-09-28T08:43:32.566Z,70.96
2022-09-28T08:45:59.001Z,70.73
2022-09-28T08:48:25.380Z,70.56
2022-09-28T08:50:51.707Z,71.15
2022-09-28T08:53:18.046Z,71.05
2022-09-28T08:55:44.391Z,71.23
2022-09-28T08:58:10.722Z,70.38
2022-09-28T09:00:37.044Z,70.77
2022-09-28T09:03:03.408Z,70.28
2022-09-28T09:05:29.732Z,70.62
2022-09-28T09:07:56.071Z,70.30
2022-09-28T09:10:22.399Z,70.52
2022-09-28T09:12:48.756Z,69.36
2022-09-28T09:15:15.149Z,69.26
2022-09-28T09:17:41.479Z,69.23
2022-09-28T09:20:07.877Z,69.00
2022-09-28T09:22:34.223Z,69.87
2022-09-28T09:25:00.572Z,69.85
2022-09-28T09:27:26.898Z,69.98
2022-09-28T09:29:53.219Z,70.11
2022-09-28T09:32:19.555Z,68.94
2022-09-28T09:34:45.895Z,69.26
2022-09-28T09:37:12.221Z,68.82
2022-09-28T09:39:38.558Z,68.45
2022-09-28T09:42:04.882Z,68.27
2022-09-28T09:44:31.215Z,67.77
2022-09-28T09:46:57.550Z,68.95
2022-09-28T09:49:23.877Z,68.79
2022-09-28T09:51:50.217Z,68.97
2022-09-28T09:54:16.556Z,68.05
2022-09-28T09:56:42.872Z,67.77
2022-09-28T09:59:09.217Z,68.11
2022-09-28T10:01:35.585Z,68.42
2022-09-28T10:04:01.949Z,68.25
2022-09-28T10:06:28.281Z,68.40
2022-09-28T10:08:54.615Z,68.70
2022-09-28T10:11:20.942Z,67.70
2022-09-28T10:13:47.288Z,66.78
2022-09-28T10:16:13.650Z,67.24
2022-09-28T10:18:40.010Z,67.19
2022-09-28T10:21:06.352Z,66.21
2022-09-28T10:23:32.702Z,66.17
2022-09-28T10:25:59.052Z,66.86
2022-09-28T10:28:25.391Z,65.75
2022-09-28T10:30:51.835Z,66.13
2022-09-28T10:33:18.292Z,66.52
2022-09-28T10:35:44.635Z,66.14
2022-09-28T10:38:10.956Z,65.79
2022-09-28T10:40:37.305Z,65.22
2022-09-28T10:43:03.666Z,64.74
2022-09-28T10:45:29.997Z,64.75
2022-09-28T10:47:56.331Z,65.42
2022-09-28T10:50:22.654Z,63.74
2022-09-28T10:52:48.981Z,64.17
2022-09-28T10:55:15.324Z,63.32
2022-09-28T10:57:41.654Z,63.27
2022-09-28T11:00:08.004Z,63.11
2022-09-28T11:02:36.191Z,62.66
2022-09-28T11:05:02.875Z,63.81
2022-09-28T11:07:29.203Z,63.07
2022-09-28T11:09:55.533Z,63.54
2022-09-28T11:12:21.862Z,62.57
2022-09-28T11:14:48.194Z,63.12
2022-09-28T11:17:14.537Z,63.46
2022-09-28T11:19:40.863Z,63.52
2022-09-28T11:22:07.178Z,63.35
2022-09-28T11:24:33.512Z,64.52
2022-09-28T11:26:59.832Z,65.17
2022-09-28T11:29:26.162Z,64.54
2022-09-28T11:31:52.497Z,64.35
2022-09-28T11:34:18.994Z,65.11
2022-09-28T11:36:45.411Z,66.48
2022-09-28T11:39:11.732Z,66.43
2022-09-28T11:41:38.060Z,66.05
2022-09-28T11:44:04.391Z,66.10
2022-09-28T11:46:30.758Z,66.28
2022-09-28T11:48:57.128Z,66.36
2022-09-28T11:51:23.474Z,65.83
2022-09-28T11:53:49.824Z,66.09
2022-09-28T11:56:16.156Z,65.29
2022-09-28T11:58:42.487Z,66.16
2022-09-28T12:01:08.814Z,65.53
2022-09-28T12:03:35.225Z,65.80
2022-09-28T12:06:01.662Z,65.95
2022-09-28T12:08:28.001Z,65.71
2022-09-28T12:10:54.345Z,64.80
2022-09-28T12:13:20.678Z,65.50
2022-09-28T12:16:15.058Z,65.67
2022-09-28T12:18:33.345Z,64.95
2022-09-28T12:21:04.443Z,65.52
2022-09-28T12:23:31.635Z,65.37
2022-09-28T12:25:57.972Z,65.05
2022-09-28T12:28:24.292Z,65.84
2022-09-28T12:30:50.675Z,66.97
2022-09-28T12:33:17.032Z,67.45
2022-09-28T12:35:43.355Z,66.36
2022-09-28T12:38:09.697Z,66.62
2022-09-28T12:40:36.085Z,66.47
2022-09-28T12:43:02.447Z,65.89
2022-09-28T12:45:28.776Z,66.80
2022-09-28T12:47:55.097Z,66.33
2022-09-28T12:50:38.239Z,66.08
2022-09-28T12:53:05.322Z,65.72
2022-09-28T12:55:31.649Z,65.93
2022-09-28T12:57:57.992Z,65.97
2022-09-28T13:00:24.372Z,65.42
2022-09-28T13:02:50.735Z,64.90
2022-09-28T13:05:17.110Z,65.36
2022-09-28T13:07:43.443Z,65.12
2022-09-28T13:10:09.778Z,64.27
2022-09-28T13:12:36.105Z,63.59
2022-09-28T13:15:02.421Z,63.92
2022-09-28T13:17:28.751Z,63.82
2022-09-28T13:19:55.087Z,63.81
2022-09-28T13:22:21.421Z,63.59
2022-09-28T13:24:47.756Z,64.57
2022-09-28T13:27:14.093Z,63.92
2022-09-28T13:29:40.416Z,62.68
2022-09-28T13:32:06.751Z,64.26
2022-09-28T13:34:33.104Z,64.13
2022-09-28T13:36:59.450Z,63.67
2022-09-28T13:39:25.769Z,63.98
2022-09-28T13:41:52.092Z,64.31
2022-09-28T13:44:18.500Z,64.39
2022-09-28T13:46:44.877Z,64.99
2022-09-28T13:49:11.222Z,64.21
2022-09-28T13:51:37.557Z,65.21
2022-09-28T13:54:03.896Z,65.20
2022-09-28T13:56:30.224Z,64.35
2022-09-28T13:58:56.548Z,64.57
2022-09-28T14:01:22.910Z,65.47
2022-09-28T14:03:49.295Z,65.52
2022-09-28T14:08:42.859Z,65.51
2022-09-28T14:11:09.380Z,65.08
2022-09-28T14:13:35.734Z,65.32
2022-09-28T14:16:02.115Z,64.69
2022-09-28T14:18:28.487Z,65.58
2022-09-28T14:20:54.814Z,65.03
2022-09-28T14:23:21.146Z,65.42
2022-09-28T14:25:47.491Z,64.95
2022-09-28T14:28:13.838Z,65.01
2022-09-28T14:30:40.205Z,65.12
2022-09-28T14:33:06.569Z,65.90
2022-09-28T14:35:32.917Z,66.10
2022-09-28T14:37:59.231Z,65.82
2022-09-28T14:40:25.586Z,65.50
2022-09-28T14:45:18.240Z,64.96
2022-09-28T14:47:44.577Z,65.00
2022-09-28T14:50:14.572Z,65.78
2022-09-28T14:52:41.152Z,65.91
2022-09-28T14:55:07.491Z,66.51
2022-09-28T14:57:33.815Z,66.27
2022-09-28T15:00:00.175Z,67.66
2022-09-28T15:02:26.509Z,68.01
2022-09-28T15:04:53.021Z,68.28
2022-09-28T15:07:19.488Z,68.85
2022-09-28T15:09:45.818Z,69.69
2022-09-28T15:12:12.146Z,70.01
2022-09-28T15:14:38.490Z,70.40
2022-09-28T15:17:04.825Z,69.53
2022-09-28T15:19:31.157Z,69.43
2022-09-28T15:21:57.480Z,70.32
2022-09-28T15:24:23.803Z,68.95
2022-09-28T15:26:50.130Z,69.57
2022-09-28T15:29:16.459Z,68.50
2022-09-28T15:31:42.974Z,69.48
2022-09-28T15:34:09.320Z,69.42
2022-09-28T15:36:35.647Z,69.37
2022-09-28T15:39:01.969Z,68.76
2022-09-28T15:41:28.308Z,68.85
2022-09-28T15:43:54.648Z,68.34
2022-09-28T15:46:21.103Z,68.01
2022-09-28T15:48:47.513Z,68.74
2022-09-28T15:51:13.843Z,68.56
2022-09-28T15:53:40.174Z,68.24
2022-09-28T15:56:06.515Z,67.44
2022-09-28T15:58:32.861Z,67.05
2022-09-28T16:00:59.204Z,67.12
2022-09-28T16:03:25.530Z,67.70
2022-09-28T16:05:51.869Z,66.79
2022-09-28T16:08:18.213Z,67.19
2022-09-28T16:10:44.537Z,66.66
2022-09-28T16:13:10.874Z,66.53
2022-09-28T16:15:37.284Z,66.65
2022-09-28T16:18:03.685Z,66.10
2022-09-28T16:20:30.074Z,66.60
2022-09-28T16:22:56.476Z,66.60
2022-09-28T16:25:22.817Z,66.34
2022-09-28T16:27:49.173Z,66.23
2022-09-28T16:30:15.512Z,66.36
2022-09-28T16:32:41.952Z,66.16
2022-09-28T16:35:08.340Z,67.10
2022-09-28T16:37:34.674Z,66.58
2022-09-28T16:40:01.015Z,66.86
2022-09-28T16:42:27.446Z,66.82
2022-09-28T16:44:53.819Z,66.54
2022-09-28T16:47:20.157Z,67.61
2022-09-28T16:49:46.502Z,66.71
2022-09-28T16:52:12.829Z,67.31
2022-09-28T16:54:39.160Z,66.00
2022-09-28T16:57:05.488Z,66.66
2022-09-28T16:59:31.819Z,66.33
2022-09-28T17:01:58.213Z,66.60
2022-09-28T17:04:24.658Z,65.29
2022-09-28T17:06:51.018Z,65.03
2022-09-28T17:09:17.458Z,64.35
2022-09-28T17:11:43.833Z,64.61
2022-09-28T17:14:10.165Z,64.66
2022-09-28T17:17:06.168Z,65.34
2022-09-28T17:19:22.823Z,64.93
2022-09-28T17:21:49.156Z,64.43
2022-09-28T17:24:15.499Z,63.85
2022-09-28T17:26:41.827Z,64.11
2022-09-28T17:29:08.160Z,63.39
2022-09-28T17:31:34.498Z,63.14
2022-09-28T17:34:00.832Z,63.21
2022-09-28T17:36:27.162Z,62.52
2022-09-28T17:38:53.488Z,62.26
2022-09-28T17:41:20.782Z,61.27
2022-09-28T17:43:47.454Z,61.11
2022-09-28T17:46:13.798Z,61.05
2022-09-28T17:48:40.142Z,58.94
2022-09-28T17:51:06.471Z,58.36
2022-09-28T17:53:32.801Z,58.47
2022-09-28T17:55:59.134Z,59.27
2022-09-28T17:58:25.493Z,58.64
2022-09-28T18:00:51.816Z,57.53
2022-09-28T18:03:18.149Z,58.30
2022-09-28T18:05:44.492Z,57.45
2022-09-28T18:08:10.831Z,57.09
2022-09-28T18:10:37.170Z,57.29
2022-09-28T18:13:03.505Z,58.31
2022-09-28T18:15:29.876Z,58.33
2022-09-28T18:17:56.232Z,57.87
2022-09-28T18:20:22.571Z,58.31
2022-09-28T18:22:48.905Z,58.31
2022-09-28T18:25:15.230Z,58.17
2022-09-28T18:27:41.553Z,57.41
2022-09-28T18:30:07.870Z,58.65
2022-09-28T18:32:34.202Z,57.91
2022-09-28T18:35:00.539Z,58.41
2022-09-28T18:37:26.869Z,58.67
2022-09-28T18:39:53.205Z,60.00
2022-09-28T18:42:19.538Z,58.98
2022-09-28T18:44:45.870Z,59.24
2022-09-28T18:47:12.196Z,59.14
2022-09-28T18:49:38.540Z,59.14
2022-09-28T18:52:04.876Z,59.45
2022-09-28T18:54:31.213Z,59.80
2022-09-28T18:56:57.557Z,59.34
2022-09-28T18:59:24.019Z,59.68
2022-09-28T19:01:50.531Z,60.12
2022-09-28T19:04:16.898Z,59.69
2022-09-28T19:06:43.238Z,59.29
2022-09-28T19:09:09.596Z,58.86
2022-09-28T19:11:35.948Z,59.25
2022-09-28T19:14:02.276Z,58.59
2022-09-28T19:16:28.604Z,59.23
2022-09-28T19:18:54.953Z,58.80
2022-09-28T19:21:22.780Z,59.57
2022-09-28T19:23:49.941Z,58.87
2022-09-28T19:26:16.412Z,59.58
2022-09-28T19:28:42.736Z,60.08
2022-09-28T19:31:09.166Z,60.39
2022-09-28T19:33:36.745Z,60.92
2022-09-28T19:36:03.365Z,62.18
2022-09-28T19:38:29.781Z,62.09
2022-09-28T19:40:57.370Z,60.93
2022-09-28T19:43:25.319Z,60.85
2022-09-28T19:45:53.684Z,61.58
2022-09-28T19:48:20.318Z,61.60
2022-09-28T19:50:46.637Z,62.02
2022-09-28T19:53:13.907Z,61.21
2022-09-28T19:55:41.145Z,60.50
2022-09-28T19:58:07.907Z,60.77
2022-09-28T20:00:34.317Z,61.55
2022-09-28T20:03:00.752Z,61.28
2022-09-28T20:05:27.941Z,61.50
2022-09-28T20:07:54.390Z,61.40
2022-09-28T20:10:20.752Z,60.86
2022-09-28T20:12:47.037Z,61.25
2022-09-28T20:15:13.360Z,61.32
2022-09-28T20:17:39.692Z,60.80
2022-09-28T20:20:10.489Z,61.66
2022-09-28T20:22:37.187Z,60.61
2022-09-28T20:25:03.521Z,61.34
2022-09-28T20:27:31.370Z,61.34
2022-09-28T20:29:57.796Z,60.79
2022-09-28T20:32:24.137Z,60.19
2022-09-28T20:34:50.471Z,60.78
2022-09-28T20:37:16.808Z,62.02
2022-09-28T20:39:45.122Z,61.71
2022-09-28T20:42:11.641Z,61.59
2022-09-28T20:44:37.973Z,61.66
2022-09-28T20:47:04.317Z,61.39
2022-09-28T20:49:30.663Z,61.82
2022-09-28T20:51:56.995Z,62.27
2022-09-28T20:54:23.326Z,61.91
2022-09-28T20:56:49.663Z,61.37
2022-09-28T20:59:15.994Z,62.25
2022-09-28T21:01:42.372Z,61.51
2022-09-28T21:04:08.752Z,62.40
2022-09-28T21:06:35.086Z,62.33
2022-09-28T21:09:01.405Z,62.25
2022-09-28T21:11:27.745Z,62.27
2022-09-28T21:13:54.074Z,62.63
2022-09-28T21:16:20.413Z,62.32
2022-09-28T21:18:46.753Z,61.97
2022-09-28T21:21:13.078Z,62.08
2022-09-28T21:23:39.405Z,62.56
2022-09-28T21:26:05.751Z,62.30
2022-09-28T21:28:32.083Z,62.31
2022-09-28T21:30:58.437Z,62.25
2022-09-28T21:33:24.801Z,62.71
2022-09-28T21:35:51.143Z,62.21
2022-09-28T21:38:17.486Z,61.96
2022-09-28T21:40:43.926Z,62.02
2022-09-28T21:43:10.321Z,62.29
2022-09-28T21:45:36.648Z,62.00
2022-09-28T21:48:02.980Z,62.02
2022-09-28T21:50:29.322Z,61.97
2022-09-28T21:52:55.662Z,61.26
2022-09-28T21:55:21.990Z,60.65
2022-09-28T21:57:48.344Z,60.91
2022-09-28T22:00:14.675Z,60.56
2022-09-28T22:02:41.041Z,60.42
2022-09-28T22:05:07.393Z,60.38
2022-09-28T22:07:33.723Z,60.05
2022-09-28T22:10:00.051Z,60.47
2022-09-28T22:12:26.395Z,59.99
2022-09-28T22:14:52.733Z,60.08
2022-09-28T22:17:19.064Z,60.69
2022-09-28T22:19:45.398Z,60.58
2022-09-28T22:22:11.755Z,59.23
2022-09-28T22:24:38.091Z,59.79
2022-09-28T22:27:04.437Z,59.43
2022-09-28T22:29:30.776Z,59.25
2022-09-28T22:31:57.101Z,59.92
2022-09-28T22:34:23.430Z,59.84
2022-09-28T22:36:49.762Z,59.48
2022-09-28T22:39:16.098Z,58.71
2022-09-28T22:41:42.437Z,58.62
2022-09-28T22:44:08.764Z,58.73
2022-09-28T22:46:35.139Z,59.05
2022-09-28T22:49:01.619Z,59.60
2022-09-28T22:51:27.960Z,59.01
2022-09-28T22:53:54.309Z,59.25
2022-09-28T22:56:20.650Z,59.41
2022-09-28T22:58:46.991Z,58.60
2022-09-28T23:01:13.394Z,59.16
2022-09-28T23:03:39.777Z,58.62
2022-09-28T23:06:06.113Z,59.02
2022-09-28T23:08:32.462Z,58.95
2022-09-28T23:10:58.821Z,58.88
2022-09-28T23:13:25.165Z,58.67
2022-09-28T23:15:51.564Z,59.17
2022-09-28T23:18:17.899Z,60.16
2022-09-28T23:20:44.230Z,59.07
2022-09-28T23:23:10.557Z,59.72
2022-09-28T23:25:36.885Z,59.32
2022-09-28T23:28:03.234Z,59.70
2022-09-28T23:30:29.577Z,59.44
2022-09-28T23:32:55.899Z,60.02
2022-09-28T23:35:22.233Z,60.10
2022-09-28T23:37:48.566Z,60.07
2022-09-28T23:40:14.903Z,59.72
2022-09-28T23:42:41.244Z,60.14
2022-09-28T23:45:07.577Z,60.43
2022-09-28T23:47:33.901Z,60.11
2022-09-28T23:50:00.244Z,60.74
2022-09-28T23:52:26.575Z,60.35
2022-09-28T23:54:52.897Z,60.68
2022-09-28T23:57:19.225Z,60.33
2022-09-28T23:59:45.557Z,60.88
